createdAt,value
2023-01-17T05:17:59.110Z,2.28
2023-01-17T05:20:27.038Z,1.88
2023-01-17T05:22:57.473Z,1.48
2023-01-17T05:25:27.329Z,2.88
2023-01-17T05:27:54.380Z,1.30
2023-01-17T05:30:22.446Z,1.52
2023-01-17T05:32:50.513Z,1.42
2023-01-17T05:35:19.613Z,2.05
2023-01-17T05:37:49.109Z,2.15
2023-01-17T05:40:20.737Z,1.65
2023-01-17T05:42:51.928Z,2.05
2023-01-17T05:45:20.049Z,1.48
2023-01-17T05:47:51.391Z,1.90
2023-01-17T05:50:20.729Z,2.20
2023-01-17T05:52:52.783Z,1.80
2023-01-17T05:55:20.230Z,2.13
2023-01-17T05:57:46.784Z,2.63
2023-01-17T06:00:14.585Z,1.85
2023-01-17T06:02:45.468Z,2.13
2023-01-17T06:05:16.911Z,2.33
2023-01-17T06:07:47.749Z,2.55
2023-01-17T06:10:40.064Z,2.20
2023-01-17T06:13:21.010Z,2.22
2023-01-17T06:15:48.088Z,2.15
2023-01-17T06:18:16.655Z,1.92
2023-01-17T06:21:08.146Z,2.20
2023-01-17T06:23:43.936Z,1.95
2023-01-17T06:26:10.713Z,2.17
2023-01-17T06:28:37.545Z,2.38
2023-01-17T06:31:09.265Z,2.60
2023-01-17T06:33:35.901Z,2.30
2023-01-17T06:36:02.448Z,2.40
2023-01-17T06:38:29.973Z,2.28
2023-01-17T06:41:00.149Z,2.30
2023-01-17T06:43:28.910Z,2.47
2023-01-17T06:45:55.635Z,2.00
2023-01-17T06:48:24.268Z,2.90
2023-01-17T06:50:52.844Z,2.47
2023-01-17T06:53:19.364Z,2.63
2023-01-17T06:55:45.935Z,2.60
2023-01-17T06:58:12.435Z,2.22
2023-01-17T07:00:40.931Z,2.47
2023-01-17T07:03:17.273Z,2.50
2023-01-17T07:09:57.289Z,3.13
2023-01-17T07:12:23.849Z,2.38
2023-01-17T07:14:50.459Z,2.45
2023-01-17T07:17:17.243Z,2.40
2023-01-17T07:19:44.884Z,2.13
2023-01-17T07:22:12.468Z,2.55
2023-01-17T07:24:39.105Z,2.22
2023-01-17T07:27:08.779Z,2.58
2023-01-17T07:29:35.279Z,2.58
2023-01-17T07:32:03.276Z,2.83
2023-01-17T07:34:31.996Z,3.42
2023-01-17T07:36:58.572Z,3.50
2023-01-17T07:39:25.072Z,3.03
2023-01-17T07:41:51.615Z,3.05
2023-01-17T07:44:19.252Z,2.88
2023-01-17T07:49:27.235Z,2.63
2023-01-17T07:51:55.177Z,2.28
2023-01-17T07:54:27.566Z,3.28
2023-01-17T07:56:56.059Z,2.10
2023-01-17T07:59:22.595Z,2.50
2023-01-17T08:01:49.150Z,2.53
2023-01-17T08:04:15.727Z,2.97
2023-01-17T08:06:47.450Z,2.55
2023-01-17T08:09:14.301Z,2.15
2023-01-17T08:11:42.859Z,3.03
2023-01-17T08:14:09.441Z,3.00
2023-01-17T08:16:37.635Z,2.72
2023-01-17T08:19:04.346Z,3.05
2023-01-17T08:21:31.003Z,3.03
2023-01-17T08:24:22.288Z,2.90
2023-01-17T08:26:48.837Z,3.25
2023-01-17T08:29:18.556Z,3.33
2023-01-17T08:31:46.496Z,3.05
2023-01-17T08:34:14.181Z,2.10
2023-01-17T08:36:42.789Z,2.17
2023-01-17T08:39:09.834Z,2.20
2023-01-17T08:41:36.539Z,2.63
2023-01-17T08:44:03.168Z,1.88
2023-01-17T08:46:32.072Z,2.33
2023-01-17T08:48:59.985Z,2.33
2023-01-17T08:51:27.858Z,2.35
2023-01-17T08:53:56.035Z,2.45
2023-01-17T08:56:26.902Z,2.45
2023-01-17T08:58:54.441Z,2.40
2023-01-17T09:01:22.068Z,2.42
2023-01-17T09:03:51.438Z,2.50
2023-01-17T09:06:18.078Z,2.55
2023-01-17T09:08:46.915Z,2.22
2023-01-17T09:11:16.762Z,2.83
2023-01-17T09:13:43.435Z,2.90
2023-01-17T09:16:12.069Z,2.15
2023-01-17T09:18:40.559Z,2.47
2023-01-17T09:21:15.744Z,2.83
2023-01-17T09:23:43.595Z,2.58
2023-01-17T09:26:20.542Z,2.60
2023-01-17T09:28:49.418Z,2.97
2023-01-17T09:31:17.617Z,3.00
2023-01-17T09:33:52.017Z,2.63
2023-01-17T09:36:18.714Z,2.75
2023-01-17T09:39:09.821Z,3.08
2023-01-17T09:41:54.610Z,2.17
2023-01-17T09:44:40.928Z,2.40
2023-01-17T09:47:16.990Z,2.38
2023-01-17T09:49:45.820Z,2.20
2023-01-17T09:52:16.692Z,2.00
2023-01-17T09:54:45.272Z,2.20
2023-01-17T09:57:38.529Z,1.98
2023-01-17T10:00:35.762Z,2.78
2023-01-17T10:03:05.360Z,1.63
2023-01-17T10:05:43.667Z,1.77
2023-01-17T10:08:48.721Z,1.70
2023-01-17T10:14:15.657Z,1.25
2023-01-17T10:16:57.621Z,1.35
2023-01-17T10:19:44.441Z,1.33
2023-01-17T10:22:46.479Z,1.15
2023-01-17T10:25:43.375Z,1.40
2023-01-17T10:28:16.368Z,1.65
2023-01-17T10:30:48.833Z,2.45
2023-01-17T10:33:27.108Z,2.78
2023-01-17T10:35:59.959Z,2.17
2023-01-17T10:38:33.511Z,2.45
2023-01-17T10:41:18.563Z,1.77
2023-01-17T10:43:55.927Z,2.05
2023-01-17T10:46:28.711Z,2.63
2023-01-17T10:48:57.089Z,2.33
2023-01-17T10:52:00.237Z,1.85
2023-01-17T10:55:08.808Z,1.60
2023-01-17T10:57:43.011Z,1.90
2023-01-17T11:00:25.837Z,1.95
2023-01-17T11:02:52.435Z,2.00
2023-01-17T11:05:29.005Z,1.92
2023-01-17T11:08:06.114Z,2.33
2023-01-17T11:10:44.595Z,2.05
2023-01-17T11:13:29.508Z,1.73
2023-01-17T11:16:02.876Z,1.92
2023-01-17T11:18:32.427Z,1.70
2023-01-17T11:21:11.267Z,1.77
2023-01-17T11:23:42.652Z,1.55
2023-01-17T11:26:20.575Z,1.88
2023-01-17T11:28:52.975Z,2.13
2023-01-17T11:31:19.581Z,1.98
2023-01-17T11:33:49.181Z,2.13
2023-01-17T11:36:17.071Z,1.80
2023-01-17T11:38:56.212Z,1.30
2023-01-17T11:41:28.237Z,1.40
2023-01-17T11:43:58.070Z,1.42
2023-01-17T11:46:25.566Z,1.25
2023-01-17T11:48:57.954Z,1.33
2023-01-17T11:51:32.304Z,1.48
2023-01-17T11:54:26.824Z,1.33
2023-01-17T11:57:01.306Z,0.90
2023-01-17T11:59:27.759Z,0.88
2023-01-17T12:02:31.736Z,0.77
2023-01-17T12:05:41.061Z,1.15
2023-01-17T12:08:26.138Z,0.80
2023-01-17T12:11:02.392Z,0.90
2023-01-17T12:14:02.359Z,1.13
2023-01-17T12:16:58.139Z,1.00
2023-01-17T12:19:54.222Z,0.60
2023-01-17T12:22:34.007Z,1.00
2023-01-17T12:25:47.355Z,0.95
2023-01-17T12:28:22.626Z,0.60
2023-01-17T12:31:24.524Z,0.80
2023-01-17T12:33:57.561Z,0.50
2023-01-17T12:36:48.473Z,0.80
2023-01-17T12:39:20.526Z,0.68
2023-01-17T12:42:03.232Z,0.55
2023-01-17T12:44:46.346Z,0.65
2023-01-17T12:47:21.762Z,0.43
2023-01-17T12:50:41.040Z,0.52
2023-01-17T12:53:46.789Z,0.60
2023-01-17T12:56:24.487Z,0.30
2023-01-17T12:59:37.718Z,0.30
2023-01-17T13:02:18.657Z,0.80
2023-01-17T13:04:58.508Z,0.70
2023-01-17T13:07:25.605Z,0.68
2023-01-17T13:10:00.543Z,0.80
2023-01-17T13:12:36.783Z,0.70
2023-01-17T13:15:15.670Z,0.40
2023-01-17T13:18:26.138Z,0.70
2023-01-17T13:21:29.434Z,0.80
2023-01-17T13:24:41.056Z,0.65
2023-01-17T13:27:30.611Z,0.40
2023-01-17T13:30:30.349Z,0.63
2023-01-17T13:33:27.977Z,0.93
2023-01-17T13:36:16.681Z,1.00
2023-01-17T13:38:57.623Z,0.70
2023-01-17T13:41:49.499Z,0.82
2023-01-17T13:44:21.914Z,0.80
2023-01-17T13:47:27.446Z,1.00
2023-01-17T13:49:56.453Z,0.90
2023-01-17T13:52:25.943Z,1.02
2023-01-17T13:55:02.782Z,0.80
2023-01-17T13:57:41.886Z,1.10
2023-01-17T14:00:28.929Z,0.93
2023-01-17T14:03:00.266Z,0.93
2023-01-17T14:05:29.839Z,0.90
2023-01-17T14:08:03.807Z,0.80
2023-01-17T14:10:38.561Z,0.77
2023-01-17T14:13:25.013Z,1.00
2023-01-17T14:15:52.250Z,0.82
2023-01-17T14:18:40.011Z,0.93
2023-01-17T14:21:33.428Z,1.00
2023-01-17T14:24:09.346Z,1.60
2023-01-17T14:26:45.134Z,0.93
2023-01-17T14:29:42.843Z,1.23
2023-01-17T14:32:22.401Z,1.02
2023-01-17T14:34:51.333Z,1.38
2023-01-17T14:37:33.185Z,1.27
2023-01-17T14:40:30.783Z,1.45
2023-01-17T14:43:03.278Z,1.73
2023-01-17T14:45:32.575Z,1.50
2023-01-17T14:48:02.729Z,1.08
2023-01-17T14:50:42.914Z,1.58
2023-01-17T14:53:12.679Z,1.20
2023-01-17T14:55:48.861Z,1.27
2023-01-17T14:58:23.937Z,1.42
2023-01-17T15:01:02.396Z,1.45
2023-01-17T15:03:31.821Z,1.20
2023-01-17T15:06:11.188Z,1.08
2023-01-17T15:08:39.212Z,1.60
2023-01-17T15:11:33.236Z,1.10
2023-01-17T15:14:05.710Z,1.70
2023-01-17T15:16:35.331Z,1.10
2023-01-17T15:19:14.135Z,0.90
2023-01-17T15:22:07.357Z,1.23
2023-01-17T15:24:41.194Z,1.35
2023-01-17T15:27:08.202Z,1.73
2023-01-17T15:29:35.763Z,1.58
2023-01-17T15:32:06.703Z,1.27
2023-01-17T15:34:45.296Z,1.83
2023-01-17T15:37:26.996Z,1.75
2023-01-17T15:40:19.659Z,1.95
2023-01-17T15:42:50.788Z,1.20
2023-01-17T15:45:22.275Z,1.45
2023-01-17T15:47:48.939Z,1.67
2023-01-17T15:50:23.651Z,1.10
2023-01-17T15:52:52.054Z,1.20
2023-01-17T15:55:30.320Z,1.65
2023-01-17T15:57:57.148Z,1.83
2023-01-17T16:00:32.655Z,1.48
2023-01-17T16:02:59.982Z,1.70
2023-01-17T16:05:31.018Z,2.13
2023-01-17T16:08:01.607Z,1.60
2023-01-17T16:10:35.657Z,2.15
2023-01-17T16:13:03.915Z,2.63
2023-01-17T16:15:31.152Z,2.88
2023-01-17T16:18:02.464Z,2.72
2023-01-17T16:20:43.607Z,2.75
2023-01-17T16:23:10.715Z,3.45
2023-01-17T16:25:37.995Z,2.88
2023-01-17T16:28:05.316Z,2.72
2023-01-17T16:30:33.367Z,5.05
2023-01-17T16:33:00.284Z,4.72
2023-01-17T16:35:30.019Z,4.22
2023-01-17T16:37:59.176Z,3.28
2023-01-17T16:40:31.589Z,3.15
2023-01-17T16:42:59.355Z,2.88
2023-01-17T16:45:26.587Z,4.00
2023-01-17T16:47:54.328Z,2.83
2023-01-17T16:50:24.006Z,3.15
2023-01-17T16:52:56.159Z,2.95
2023-01-17T16:55:24.841Z,3.33
2023-01-17T16:57:57.497Z,2.38
2023-01-17T17:00:24.328Z,2.65
2023-01-17T17:02:51.819Z,1.88
2023-01-17T17:05:19.955Z,2.17
2023-01-17T17:07:50.751Z,1.67
2023-01-17T17:10:19.793Z,2.05
2023-01-17T17:12:46.867Z,2.28
2023-01-17T17:15:14.132Z,3.05
2023-01-17T17:17:43.072Z,2.72
2023-01-17T17:20:12.684Z,3.40
2023-01-17T17:22:45.639Z,4.22
2023-01-17T17:25:12.351Z,3.50
2023-01-17T17:27:38.882Z,2.40
2023-01-17T17:30:06.206Z,2.30
2023-01-17T17:32:35.125Z,3.05
2023-01-17T17:35:01.738Z,3.03
2023-01-17T17:37:29.059Z,2.60
2023-01-17T17:39:56.874Z,2.13
2023-01-17T17:42:23.708Z,2.17
2023-01-17T17:44:50.242Z,2.10
2023-01-17T17:47:16.728Z,1.77
2023-01-17T17:49:43.490Z,1.33
2023-01-17T17:52:10.213Z,2.67
2023-01-17T17:54:36.751Z,1.88
2023-01-17T17:57:03.290Z,1.92
2023-01-17T17:59:30.006Z,1.67
2023-01-17T18:01:57.069Z,1.88
2023-01-17T18:04:23.619Z,1.65
2023-01-17T18:06:50.091Z,1.45
2023-01-17T18:09:16.846Z,1.20
2023-01-17T18:11:44.417Z,1.23
2023-01-17T18:14:14.097Z,1.25
2023-01-17T18:16:43.722Z,2.00
2023-01-17T18:19:19.625Z,2.95
2023-01-17T18:21:46.245Z,5.10
2023-01-17T18:24:15.448Z,7.13
2023-01-17T18:26:43.322Z,5.30
2023-01-17T18:29:14.863Z,3.03
2023-01-17T18:31:43.012Z,2.00
2023-01-17T18:34:13.225Z,3.45
2023-01-17T18:36:40.240Z,1.90
2023-01-17T18:39:18.744Z,2.05
2023-01-17T18:41:45.722Z,1.95
2023-01-17T18:44:12.675Z,2.08
2023-01-17T18:46:40.196Z,1.83
2023-01-17T18:49:12.807Z,2.28
2023-01-17T18:51:39.364Z,2.17
2023-01-17T18:54:07.227Z,2.22
2023-01-17T18:56:34.458Z,1.80
2023-01-17T18:59:01.778Z,2.08
2023-01-17T19:01:31.072Z,2.00
2023-01-17T19:04:00.287Z,2.13
2023-01-17T19:06:32.485Z,2.10
2023-01-17T19:08:59.397Z,2.05
2023-01-17T19:11:27.576Z,2.13
2023-01-17T19:13:54.400Z,2.00
2023-01-17T19:16:27.946Z,2.60
2023-01-17T19:18:56.441Z,3.35
2023-01-17T19:21:25.800Z,2.42
2023-01-17T19:23:52.710Z,2.55
2023-01-17T19:26:22.807Z,1.70
2023-01-17T19:28:50.105Z,1.98
2023-01-17T19:31:22.148Z,1.60
2023-01-17T19:33:50.913Z,1.80
2023-01-17T19:36:20.522Z,3.20
2023-01-17T19:39:02.899Z,1.73
2023-01-17T19:41:30.742Z,1.85
2023-01-17T19:44:01.895Z,1.48
2023-01-17T19:46:28.657Z,2.35
2023-01-17T19:48:56.661Z,2.00
2023-01-17T19:51:24.725Z,1.58
2023-01-17T19:53:51.503Z,2.03
2023-01-17T19:56:20.669Z,2.13
2023-01-17T19:58:47.606Z,1.40
2023-01-17T20:01:20.272Z,1.73
2023-01-17T20:03:48.658Z,1.35
2023-01-17T20:06:44.277Z,1.38
2023-01-17T20:09:13.206Z,1.55
2023-01-17T20:12:04.885Z,1.33
2023-01-17T20:14:31.339Z,1.63
2023-01-17T20:16:57.803Z,2.00
2023-01-17T20:19:24.383Z,2.92
2023-01-17T20:21:50.907Z,1.92
2023-01-17T20:24:17.628Z,1.67
2023-01-17T20:26:44.283Z,1.63
2023-01-17T20:29:14.223Z,1.58
2023-01-17T20:31:43.028Z,1.50
2023-01-17T20:34:12.018Z,2.05
2023-01-17T20:36:41.537Z,1.48
2023-01-17T20:39:08.790Z,2.17
2023-01-17T20:41:37.273Z,2.60
2023-01-17T20:44:05.657Z,3.92
2023-01-17T20:46:35.544Z,3.17
2023-01-17T20:49:05.356Z,2.22
2023-01-17T20:51:40.110Z,2.30
2023-01-17T20:54:09.924Z,1.73
2023-01-17T20:56:37.766Z,2.22
2023-01-17T20:59:09.521Z,2.17
2023-01-17T21:01:41.810Z,2.20
2023-01-17T21:04:10.510Z,1.92
2023-01-17T21:06:39.508Z,1.98
2023-01-17T21:09:07.393Z,1.67
2023-01-17T21:11:34.522Z,1.95
2023-01-17T21:14:01.682Z,1.67
2023-01-17T21:16:28.902Z,1.08
2023-01-17T21:18:55.727Z,1.40
2023-01-17T21:21:25.296Z,1.35
2023-01-17T21:23:54.555Z,1.52
2023-01-17T21:26:22.855Z,1.52
2023-01-17T21:28:50.656Z,1.92
2023-01-17T21:31:23.284Z,1.73
2023-01-17T21:33:51.342Z,1.50
2023-01-17T21:36:19.603Z,1.60
2023-01-17T21:38:52.202Z,1.45
2023-01-17T21:41:25.528Z,1.58
2023-01-17T21:43:57.063Z,1.70
2023-01-17T21:46:24.287Z,1.48
2023-01-17T21:48:50.801Z,0.90
2023-01-17T21:51:17.678Z,1.67
2023-01-17T21:53:44.199Z,0.90
2023-01-17T21:56:31.817Z,1.48
2023-01-17T21:58:59.762Z,1.45
2023-01-17T22:01:29.905Z,1.85
2023-01-17T22:04:05.543Z,1.20
2023-01-17T22:06:39.007Z,1.35
2023-01-17T22:09:06.214Z,1.17
2023-01-17T22:11:35.423Z,0.70
2023-01-17T22:14:04.528Z,1.02
2023-01-17T22:16:31.069Z,1.88
2023-01-17T22:18:57.831Z,1.30
2023-01-17T22:21:28.084Z,1.30
2023-01-17T22:23:59.456Z,1.13
2023-01-17T22:26:29.230Z,1.52
2023-01-17T22:28:59.181Z,1.00
2023-01-17T22:31:27.615Z,1.15
2023-01-17T22:33:55.252Z,1.13
2023-01-17T22:36:22.143Z,1.13
2023-01-17T22:38:49.099Z,1.55
2023-01-17T22:41:19.863Z,1.08
2023-01-17T22:43:48.692Z,2.00
2023-01-17T22:46:18.802Z,1.08
2023-01-17T22:48:45.575Z,1.00
2023-01-17T22:51:14.537Z,1.02
2023-01-17T22:53:45.061Z,1.10
2023-01-17T22:56:14.092Z,1.02
2023-01-17T22:58:45.057Z,1.13
